Kimolos, Greece
Current Conditions -  °F | °C
As of 12:50 PM on Saturday 22 Nov 2014 (Local Time) from LGSR Reporting Station
Broken Clouds Broken Clouds  
Wind Chill: 61°   Ceiling: 2500
Heat Index: 61°   Visibility: 6mi
Dew Point: 45°   Wind: 14mph
Humidity: 55%   Direction: 10°N
Pressure: 30.18"   Gusts: NA
Location:  36.79°N, 24.57°E
Report Text: LGSR 220950Z 01012KT 9999 BKN025 SCT080 16/07 Q1022
Loading
Personal Weather Stations






























Interactive Weather Map New forecast layout! Learn more

10-Day Weather Forecast

Advertisements
Track Severe Weather on mobile